Pagrindinis puslapis
METAR-TAF:

METAR-TAF

Oro uostai :

Bagdadas, Irakas

platuma: 33-15-45N, ilguma: 44-14-04E, Aukštis: 35 m

Dabartinis oras

Ataskaita buvo paskelbta 1 valandą ir 42 minutes, ne 03:00 UTC
Vėjas 12 kt iš Vakarų/Šiaurės Vakarų
Temperatūra 28°C
Drėgmė 32%
Slėgis 1006 hPa
Matomumas 10 km arba daugiau
Su prošvaistėmis ne aukštis 3000 ft

METAR: ORBI 290300Z 30012KT 9999 BKN030 28/10 Q1006 NOSIG

Laikas: 07:42 (04:42 UTC)

Prognozė

Ataskaita buvo paskelbta 11 valandos ir 42 minutes, ne 17:00 UTC
Prognozė galioja nuo 28 metu 18 UTC su 29 metu 12 UTC
Vėjas 8 kt iš Rytų/Pietryčių
Matomumas: 8000 m
Tapsmas
nuo 29 metu 09 UTC su 29 metu 11 UTC
Vėjas 15 kt iš Šiaurės Vakarų su gūsio iki 25 kt
Matomumas: 3000 m
Išsisklaidę debesys ne aukštis 3000 ft
Išsisklaidę debesys ne aukštis 6000 ft
Dulkes pustymas

TAF: ORBI 281700Z 2818/2912 12008KT 8000 NSC BECMG 2909/2911 32015G25KT 3000 BLDU SCT030 SCT060

Orai ataskaitas ir orų prognozės (METAR, TAF).

turimą stotys yra geltonos ir raudonos taškus žemėlapyje.

Perkelti pele per norėdami pamatyti stoties vardą.

Tada spustelėkite, norėdami matyti oro stebėjimo ir prognozės.

Norėdami pakeisti žemėlapį: spustelėkite ant žalios mygtukų su juodo kryžiaus žemyn,; žalią mygtuką su brūkšneliu, jei norite nutolinti; arba žalių rodyklių gretimoms žemėlapius.


METAR-TAF: